createdAt,value
2022-11-20T00:01:25.973Z,100350.25
2022-11-20T00:03:54.112Z,100354.06
2022-11-20T00:06:21.423Z,100364.69
2022-11-20T00:08:48.459Z,100357.69
2022-11-20T00:11:18.256Z,100354.59
2022-11-20T00:13:46.028Z,100352.72
2022-11-20T00:16:14.856Z,100343.38
2022-11-20T00:18:41.265Z,100342.16
2022-11-20T00:21:12.275Z,100335.19
2022-11-20T00:23:38.631Z,100343.31
2022-11-20T00:26:07.701Z,100338.41
2022-11-20T00:28:34.322Z,100333.22
2022-11-20T00:31:17.388Z,100333.84
2022-11-20T00:33:44.703Z,100331.34
2022-11-20T00:36:13.980Z,100335.59
2022-11-20T00:38:40.363Z,100331.50
2022-11-20T00:41:09.644Z,100321.69
2022-11-20T00:43:36.055Z,100323.09
2022-11-20T00:46:05.130Z,100331.41
2022-11-20T00:48:31.510Z,100323.25
2022-11-20T00:50:57.870Z,100317.94
2022-11-20T00:53:24.988Z,100328.91
2022-11-20T00:55:56.032Z,100323.84
2022-11-20T00:58:23.222Z,100327.50
2022-11-20T01:00:50.194Z,100324.09
2022-11-20T01:03:25.574Z,100320.84
2022-11-20T01:05:53.264Z,100323.66
2022-11-20T01:08:19.565Z,100326.88
2022-11-20T01:10:45.869Z,100317.53
2022-11-20T01:13:12.203Z,100323.16
2022-11-20T01:15:38.743Z,100319.66
2022-11-20T01:18:05.245Z,100319.22
2022-11-20T01:20:35.784Z,100322.88
2022-11-20T01:23:03.168Z,100324.09
2022-11-20T01:25:30.121Z,100319.19
2022-11-20T01:27:56.484Z,100321.41
2022-11-20T01:30:22.829Z,100324.88
2022-11-20T01:32:49.144Z,100315.53
2022-11-20T01:35:15.519Z,100311.06
2022-11-20T01:37:41.858Z,100311.72
2022-11-20T01:40:08.872Z,100313.31
2022-11-20T01:42:35.494Z,100304.34
2022-11-20T01:45:02.034Z,100309.00
2022-11-20T01:47:36.889Z,100312.84
2022-11-20T01:50:38.772Z,100306.09
2022-11-20T01:53:11.840Z,100309.16
2022-11-20T01:55:42.655Z,100312.16
2022-11-20T01:58:09.414Z,100316.53
2022-11-20T02:00:35.849Z,100308.59
2022-11-20T02:03:09.937Z,100303.94
2022-11-20T02:06:00.427Z,100293.00
2022-11-20T02:08:26.794Z,100290.63
2022-11-20T02:10:53.175Z,100301.38
2022-11-20T02:13:19.621Z,100296.72
2022-11-20T02:15:47.847Z,100291.81
2022-11-20T02:18:18.227Z,100289.19
2022-11-20T02:20:48.536Z,100285.19
2022-11-20T02:23:17.570Z,100284.53
2022-11-20T02:25:46.733Z,100284.28
2022-11-20T02:28:13.242Z,100284.13
2022-11-20T02:30:39.569Z,100288.34
2022-11-20T02:33:05.895Z,100284.19
2022-11-20T02:35:32.169Z,100280.06
2022-11-20T02:38:03.416Z,100278.28
2022-11-20T02:40:30.406Z,100270.22
2022-11-20T02:42:57.723Z,100267.38
2022-11-20T02:45:25.381Z,100264.16
2022-11-20T02:47:52.367Z,100262.75
2022-11-20T02:50:19.262Z,100266.19
2022-11-20T02:52:45.662Z,100262.59
2022-11-20T02:55:12.657Z,100258.91
2022-11-20T02:57:39.027Z,100258.09
2022-11-20T03:00:06.651Z,100259.28
2022-11-20T03:02:33.783Z,100256.59
2022-11-20T03:05:00.150Z,100263.16
2022-11-20T03:07:26.471Z,100247.03
2022-11-20T03:09:52.829Z,100259.69
2022-11-20T03:12:19.128Z,100249.47
2022-11-20T03:14:50.218Z,100247.53
2022-11-20T03:17:19.130Z,100237.31
2022-11-20T03:19:45.477Z,100240.75
2022-11-20T03:22:11.779Z,100243.97
2022-11-20T03:24:38.140Z,100241.56
2022-11-20T03:27:04.438Z,100246.16
2022-11-20T03:29:30.817Z,100245.25
2022-11-20T03:31:57.126Z,100241.19
2022-11-20T03:34:23.461Z,100236.38
2022-11-20T03:36:49.808Z,100233.19
2022-11-20T03:39:16.128Z,100230.31
2022-11-20T03:41:42.635Z,100235.75
2022-11-20T03:44:11.173Z,100235.50
2022-11-20T03:46:38.058Z,100231.88
2022-11-20T03:49:04.765Z,100226.00
2022-11-20T03:51:33.484Z,100224.94
2022-11-20T03:54:02.363Z,100222.16
2022-11-20T03:56:31.057Z,100215.44
2022-11-20T03:58:57.893Z,100222.97
2022-11-20T04:01:27.148Z,100221.91
2022-11-20T04:03:55.110Z,100226.66
2022-11-20T04:06:29.562Z,100225.41
2022-11-20T04:08:57.644Z,100225.13
2022-11-20T04:11:26.886Z,100229.78
2022-11-20T04:13:56.720Z,100229.75
2022-11-20T04:16:24.779Z,100235.53
2022-11-20T04:18:55.977Z,100237.47
2022-11-20T04:21:22.622Z,100233.09
2022-11-20T04:23:49.577Z,100237.34
2022-11-20T04:26:16.070Z,100240.13
2022-11-20T04:28:42.452Z,100238.25
2022-11-20T04:31:14.543Z,100233.53
2022-11-20T04:33:41.760Z,100235.25
2022-11-20T04:36:12.571Z,100224.78
2022-11-20T04:38:39.894Z,100233.16
2022-11-20T04:41:08.149Z,100226.34
2022-11-20T04:43:35.071Z,100234.47
2022-11-20T04:46:02.066Z,100228.31
2022-11-20T04:48:29.684Z,100226.31
2022-11-20T04:50:56.200Z,100220.50
2022-11-20T04:53:23.597Z,100223.59
2022-11-20T04:55:49.996Z,100226.69
2022-11-20T04:58:17.358Z,100215.75
2022-11-20T05:00:43.702Z,100216.00
2022-11-20T05:03:10.023Z,100214.88
2022-11-20T05:05:36.422Z,100217.06
2022-11-20T05:08:02.863Z,100213.97
2022-11-20T05:10:29.332Z,100222.25
2022-11-20T05:12:55.712Z,100220.22
2022-11-20T05:15:22.238Z,100228.63
2022-11-20T05:17:52.875Z,100229.25
2022-11-20T05:20:19.915Z,100219.72
2022-11-20T05:22:46.669Z,100219.41
2022-11-20T05:25:13.281Z,100230.19
2022-11-20T05:27:39.609Z,100225.66
2022-11-20T05:30:06.630Z,100225.13
2022-11-20T05:32:32.995Z,100229.09
2022-11-20T05:34:59.379Z,100224.50
2022-11-20T05:37:25.690Z,100222.66
2022-11-20T05:39:52.035Z,100224.09
2022-11-20T05:42:18.365Z,100224.03
2022-11-20T05:44:44.699Z,100220.84
2022-11-20T05:47:11.006Z,100217.13
2022-11-20T05:49:37.336Z,100217.88
2022-11-20T05:52:03.823Z,100212.97
2022-11-20T05:54:30.144Z,100211.31
2022-11-20T05:56:56.465Z,100206.44
2022-11-20T05:59:23.000Z,100204.84
2022-11-20T06:01:49.564Z,100203.66
2022-11-20T06:04:15.876Z,100201.66
2022-11-20T06:06:42.210Z,100192.34
2022-11-20T06:09:08.537Z,100192.56
2022-11-20T06:11:34.872Z,100191.53
2022-11-20T06:14:01.209Z,100196.00
2022-11-20T06:16:27.537Z,100202.09
2022-11-20T06:18:53.852Z,100205.31
2022-11-20T06:21:21.841Z,100198.50
2022-11-20T06:23:48.879Z,100203.03
2022-11-20T06:26:21.189Z,100208.25
2022-11-20T06:28:47.897Z,100204.66
2022-11-20T06:31:16.571Z,100201.88
2022-11-20T06:33:44.110Z,100188.53
2022-11-20T06:36:12.861Z,100193.16
2022-11-20T06:38:40.103Z,100192.50
2022-11-20T06:41:07.699Z,100189.44
2022-11-20T06:43:34.042Z,100199.50
2022-11-20T06:46:00.515Z,100203.88
2022-11-20T06:48:28.189Z,100205.84
2022-11-20T06:50:54.522Z,100196.81
2022-11-20T06:53:20.882Z,100196.75
2022-11-20T06:55:48.003Z,100202.69
2022-11-20T06:58:15.318Z,100205.31
2022-11-20T07:00:42.412Z,100200.84
2022-11-20T07:03:11.025Z,100204.19
2022-11-20T07:05:38.146Z,100215.59
2022-11-20T07:08:05.257Z,100210.69
2022-11-20T07:10:32.281Z,100202.00
2022-11-20T07:12:58.592Z,100209.16
2022-11-20T07:15:25.593Z,100211.44
2022-11-20T07:17:52.251Z,100214.19
2022-11-20T07:20:18.776Z,100214.50
2022-11-20T07:22:45.130Z,100208.69
2022-11-20T07:25:11.681Z,100222.97
2022-11-20T07:27:38.039Z,100218.34
2022-11-20T07:30:05.143Z,100220.13
2022-11-20T07:32:31.472Z,100217.25
2022-11-20T07:34:57.828Z,100215.66
2022-11-20T07:37:24.134Z,100207.47
2022-11-20T07:39:50.454Z,100212.25
2022-11-20T07:42:16.858Z,100212.66
2022-11-20T07:44:43.184Z,100219.78
2022-11-20T07:47:09.480Z,100225.53
2022-11-20T07:49:35.797Z,100216.75
2022-11-20T07:52:05.032Z,100218.19
2022-11-20T07:54:31.802Z,100210.91
2022-11-20T07:56:58.125Z,100207.84
2022-11-20T07:59:24.540Z,100205.66
2022-11-20T08:01:50.942Z,100201.38
2022-11-20T08:04:17.271Z,100211.59
2022-11-20T08:06:43.635Z,100204.06
2022-11-20T08:09:09.983Z,100208.31
2022-11-20T08:11:36.294Z,100200.78
2022-11-20T08:14:02.616Z,100205.47
2022-11-20T08:16:29.145Z,100202.16
2022-11-20T08:18:55.932Z,100195.78
2022-11-20T08:21:22.235Z,100193.31
2022-11-20T08:23:48.569Z,100190.56
2022-11-20T08:26:14.888Z,100192.28
2022-11-20T08:28:41.190Z,100187.91
2022-11-20T08:31:07.505Z,100188.78
2022-11-20T08:33:33.837Z,100188.78
2022-11-20T08:36:01.732Z,100201.47
2022-11-20T08:38:28.173Z,100195.63
2022-11-20T08:40:58.626Z,100209.59
2022-11-20T08:43:24.934Z,100192.50
2022-11-20T08:45:51.245Z,100191.00
2022-11-20T08:48:17.556Z,100192.94
2022-11-20T08:50:43.886Z,100191.75
2022-11-20T08:53:10.203Z,100195.84
2022-11-20T08:55:36.724Z,100202.66
2022-11-20T08:58:07.307Z,100204.53
2022-11-20T09:00:34.719Z,100210.09
2022-11-20T09:03:01.690Z,100208.50
2022-11-20T09:05:28.444Z,100199.44
2022-11-20T09:07:58.618Z,100195.56
2022-11-20T09:10:25.352Z,100190.53
2022-11-20T09:12:53.136Z,100193.91
2022-11-20T09:15:20.295Z,100200.19
2022-11-20T09:18:00.631Z,100202.28
2022-11-20T09:20:28.782Z,100207.88
2022-11-20T09:22:55.664Z,100206.56
2022-11-20T09:25:22.200Z,100205.75
2022-11-20T09:27:48.557Z,100194.44
2022-11-20T09:30:16.264Z,100196.34
2022-11-20T09:32:43.628Z,100191.91
2022-11-20T09:35:10.497Z,100187.84
2022-11-20T09:37:36.971Z,100184.38
2022-11-20T09:40:04.023Z,100177.03
2022-11-20T09:42:38.149Z,100164.75
2022-11-20T09:45:55.677Z,100167.22
2022-11-20T09:48:32.161Z,100163.78
2022-11-20T09:51:11.298Z,100146.06
2022-11-20T09:53:55.631Z,100150.94
2022-11-20T09:56:22.911Z,100148.97
2022-11-20T09:58:52.426Z,100141.31
2022-11-20T10:01:32.760Z,100132.00
2022-11-20T10:04:04.222Z,100138.59
2022-11-20T10:06:42.880Z,100158.53
2022-11-20T10:09:12.172Z,100163.81
2022-11-20T10:12:07.784Z,100166.47
2022-11-20T10:14:39.785Z,100159.94
2022-11-20T10:17:43.274Z,100148.19
2022-11-20T10:20:36.427Z,100138.31
2022-11-20T10:23:30.689Z,100135.16
2022-11-20T10:26:04.726Z,100133.19
2022-11-20T10:29:09.300Z,100138.69
2022-11-20T10:31:41.494Z,100138.97
2022-11-20T10:34:21.018Z,100129.41
2022-11-20T10:36:56.882Z,100126.56
2022-11-20T10:40:01.645Z,100127.06
2022-11-20T10:42:46.218Z,100127.91
2022-11-20T10:45:24.779Z,100131.69
2022-11-20T10:47:53.853Z,100121.72
2022-11-20T10:50:22.994Z,100123.66
2022-11-20T10:53:34.805Z,100127.00
2022-11-20T10:56:20.322Z,100116.53
2022-11-20T10:59:01.258Z,100109.53
2022-11-20T11:01:27.802Z,100096.72
2022-11-20T11:03:56.265Z,100094.41
2022-11-20T11:06:46.328Z,100096.59
2022-11-20T11:09:33.512Z,100099.47
2022-11-20T11:12:05.758Z,100104.34
2022-11-20T11:14:46.222Z,100102.09
2022-11-20T11:17:47.718Z,100095.66
2022-11-20T11:20:25.429Z,100092.72
2022-11-20T11:22:53.151Z,100083.69
2022-11-20T11:25:28.438Z,100070.84
2022-11-20T11:27:56.885Z,100063.19
2022-11-20T11:30:25.354Z,100063.09
2022-11-20T11:33:02.699Z,100071.00
2022-11-20T11:35:29.342Z,100065.31
2022-11-20T11:38:05.533Z,100063.16
2022-11-20T11:40:37.216Z,100067.00
2022-11-20T11:43:08.581Z,100060.03
2022-11-20T11:45:34.918Z,100062.97
2022-11-20T11:48:04.563Z,100062.88
2022-11-20T11:50:30.946Z,100069.41
2022-11-20T11:53:09.847Z,100054.59
2022-11-20T11:55:44.814Z,100047.16
2022-11-20T11:58:19.790Z,100054.28
2022-11-20T12:00:58.097Z,100062.31
2022-11-20T12:03:36.748Z,100044.47
2022-11-20T12:06:09.952Z,100035.16
2022-11-20T12:08:54.112Z,100037.25
2022-11-20T12:11:47.735Z,100035.97
2022-11-20T12:14:34.996Z,100035.25
2022-11-20T12:17:02.757Z,100037.25
2022-11-20T12:19:35.354Z,100033.41
2022-11-20T12:22:26.386Z,100037.75
2022-11-20T12:25:02.637Z,100030.00
2022-11-20T12:27:53.801Z,100019.81
2022-11-20T12:30:22.064Z,100018.78
2022-11-20T12:33:19.222Z,100021.34
2022-11-20T12:36:17.241Z,100015.56
2022-11-20T12:38:46.523Z,100017.06
2022-11-20T12:41:28.166Z,100011.00
2022-11-20T12:44:24.073Z,100003.75
2022-11-20T12:47:09.522Z,100002.03
2022-11-20T12:49:49.268Z,99998.75
2022-11-20T12:52:27.552Z,100003.75
2022-11-20T12:55:13.341Z,99995.97
2022-11-20T12:57:47.309Z,99991.38
2022-11-20T13:00:20.563Z,99995.59
2022-11-20T13:03:13.512Z,100004.38
2022-11-20T13:05:49.153Z,100004.19
2022-11-20T13:08:37.027Z,100000.19
2022-11-20T13:11:19.985Z,100001.00
2022-11-20T13:14:12.525Z,99986.63
2022-11-20T13:16:51.493Z,99981.78
2022-11-20T13:19:19.044Z,99984.09
2022-11-20T13:21:50.356Z,99989.41
2022-11-20T13:24:20.020Z,99977.91
2022-11-20T13:26:47.735Z,99973.16
2022-11-20T13:29:19.492Z,99961.13
2022-11-20T13:31:49.332Z,99961.56
2022-11-20T13:34:25.853Z,99965.97
2022-11-20T13:36:57.925Z,99966.84
2022-11-20T13:39:29.767Z,99962.00
2022-11-20T13:41:58.930Z,99958.78
2022-11-20T13:44:37.598Z,99959.59
2022-11-20T13:47:04.588Z,99958.25
2022-11-20T13:49:35.177Z,99948.25
2022-11-20T13:52:15.074Z,99947.22
2022-11-20T13:54:50.378Z,99933.84
2022-11-20T13:57:19.664Z,99927.41
2022-11-20T13:59:55.097Z,99924.44
2022-11-20T14:02:23.986Z,99919.59
2022-11-20T14:04:53.635Z,99918.94
2022-11-20T14:07:24.697Z,99918.00
2022-11-20T14:09:56.840Z,99920.19
2022-11-20T14:12:29.031Z,99912.94
2022-11-20T14:14:55.907Z,99911.69
2022-11-20T14:17:23.964Z,99916.53
2022-11-20T14:19:52.573Z,99921.50
2022-11-20T14:22:24.659Z,99910.50
2022-11-20T14:25:12.515Z,99900.78
2022-11-20T14:27:41.415Z,99897.38
2022-11-20T14:30:19.974Z,99889.78
2022-11-20T14:32:47.777Z,99889.00
2022-11-20T14:35:41.420Z,99877.44
2022-11-20T14:38:12.816Z,99864.22
2022-11-20T14:40:39.177Z,99880.03
2022-11-20T14:43:23.520Z,99878.75
2022-11-20T14:46:07.950Z,99872.38
2022-11-20T14:48:44.130Z,99863.34
2022-11-20T14:51:12.328Z,99863.16
2022-11-20T14:53:38.743Z,99853.34
2022-11-20T14:56:05.261Z,99861.31
2022-11-20T14:58:34.312Z,99854.28
2022-11-20T15:01:08.272Z,99871.75
2022-11-20T15:03:39.591Z,99864.00
2022-11-20T15:06:08.088Z,99862.97
2022-11-20T15:08:35.316Z,99869.78
2022-11-20T15:11:02.410Z,99861.81
2022-11-20T15:13:38.568Z,99856.16
2022-11-20T15:16:17.358Z,99854.78
2022-11-20T15:18:44.038Z,99859.16
2022-11-20T15:21:16.098Z,99852.22
2022-11-20T15:23:43.529Z,99846.72
2022-11-20T15:26:15.390Z,99838.41
2022-11-20T15:28:46.636Z,99839.28
2022-11-20T15:31:14.725Z,99831.31
2022-11-20T15:33:41.044Z,99837.00
2022-11-20T15:36:07.649Z,99832.41
2022-11-20T15:38:33.984Z,99820.44
2022-11-20T15:41:00.330Z,99825.19
2022-11-20T15:43:26.648Z,99822.44
2022-11-20T15:46:00.257Z,99821.13
2022-11-20T15:48:36.803Z,99826.47
2022-11-20T15:51:11.949Z,99825.16
2022-11-20T15:53:39.137Z,99829.38
2022-11-20T15:56:05.628Z,99823.59
2022-11-20T15:58:31.934Z,99822.16
2022-11-20T16:00:58.365Z,99821.03
2022-11-20T16:03:25.086Z,99821.53
2022-11-20T16:05:51.387Z,99826.88
2022-11-20T16:08:17.726Z,99824.59
2022-11-20T16:10:44.050Z,99819.25
2022-11-20T16:13:16.903Z,99815.94
2022-11-20T16:15:46.227Z,99808.31
2022-11-20T16:18:15.898Z,99806.28
2022-11-20T16:20:42.450Z,99805.16
2022-11-20T16:23:08.791Z,99793.94
2022-11-20T16:25:35.185Z,99792.94
2022-11-20T16:28:01.478Z,99788.28
2022-11-20T16:30:27.789Z,99785.75
2022-11-20T16:32:54.523Z,99775.13
2022-11-20T16:35:20.862Z,99780.13
2022-11-20T16:37:47.147Z,99773.63
2022-11-20T16:40:13.451Z,99768.63
2022-11-20T16:42:39.742Z,99758.75
2022-11-20T16:45:06.570Z,99749.66
2022-11-20T16:47:36.048Z,99755.69
2022-11-20T16:50:04.033Z,99747.41
2022-11-20T16:52:31.131Z,99732.81
2022-11-20T16:54:58.171Z,99748.06
2022-11-20T16:57:25.071Z,99738.38
2022-11-20T16:59:51.376Z,99735.72
2022-11-20T17:02:17.709Z,99726.16
2022-11-20T17:04:44.017Z,99729.50
2022-11-20T17:07:10.423Z,99734.25
2022-11-20T17:09:36.790Z,99723.44
2022-11-20T17:12:03.265Z,99720.53
2022-11-20T17:14:29.631Z,99716.22
2022-11-20T17:16:55.930Z,99706.84
2022-11-20T17:19:22.241Z,99710.44
2022-11-20T17:21:48.563Z,99700.44
2022-11-20T17:24:15.534Z,99690.56
2022-11-20T17:26:43.516Z,99699.38
2022-11-20T17:29:16.168Z,99696.50
2022-11-20T17:31:43.221Z,99694.09
2022-11-20T17:34:13.597Z,99701.50
2022-11-20T17:36:44.889Z,99691.94
2022-11-20T17:39:16.044Z,99686.59
2022-11-20T17:41:42.373Z,99680.44
2022-11-20T17:44:12.872Z,99686.81
2022-11-20T17:46:39.804Z,99679.00
2022-11-20T17:49:06.307Z,99682.19
2022-11-20T17:51:33.605Z,99685.44
2022-11-20T17:54:02.222Z,99684.72
2022-11-20T17:56:32.983Z,99672.97
2022-11-20T17:59:00.784Z,99674.78
2022-11-20T18:01:27.137Z,99678.78
2022-11-20T18:03:56.212Z,99672.25
2022-11-20T18:06:25.092Z,99669.72
2022-11-20T18:08:52.079Z,99666.03
2022-11-20T18:11:18.319Z,99671.38
2022-11-20T18:13:47.963Z,99669.16
2022-11-20T18:16:14.395Z,99654.53
2022-11-20T18:18:40.703Z,99652.94
2022-11-20T18:21:07.017Z,99650.63
2022-11-20T18:23:33.762Z,99639.31
2022-11-20T18:26:00.581Z,99640.66
2022-11-20T18:28:26.880Z,99636.28
2022-11-20T18:30:53.393Z,99631.41
2022-11-20T18:33:23.038Z,99641.22
2022-11-20T18:35:51.829Z,99646.66
2022-11-20T18:38:18.133Z,99642.50
2022-11-20T18:40:44.447Z,99641.47
2022-11-20T18:43:11.152Z,99641.19
2022-11-20T18:45:37.494Z,99630.66
2022-11-20T18:48:03.914Z,99638.78
2022-11-20T18:50:30.256Z,99631.78
2022-11-20T18:52:56.549Z,99624.63
2022-11-20T18:55:22.873Z,99614.53
2022-11-20T18:57:49.182Z,99605.44
2022-11-20T19:00:15.855Z,99607.97
2022-11-20T19:02:43.411Z,99609.78
2022-11-20T19:05:14.456Z,99608.97
2022-11-20T19:07:41.146Z,99605.59
2022-11-20T19:10:08.243Z,99604.44
2022-11-20T19:12:34.577Z,99602.34
2022-11-20T19:15:00.909Z,99606.66
2022-11-20T19:17:27.238Z,99599.44
2022-11-20T19:19:53.590Z,99591.31
2022-11-20T19:22:20.008Z,99585.47
2022-11-20T19:24:46.337Z,99590.81
2022-11-20T19:27:12.659Z,99584.28
2022-11-20T19:29:39.030Z,99583.41
2022-11-20T19:32:05.510Z,99585.03
2022-11-20T19:34:31.877Z,99573.44
2022-11-20T19:36:58.370Z,99567.09
2022-11-20T19:39:24.923Z,99563.88
2022-11-20T19:41:51.436Z,99557.31
2022-11-20T19:44:17.802Z,99556.38
2022-11-20T19:46:44.366Z,99551.34
2022-11-20T19:49:13.179Z,99547.19
2022-11-20T19:51:44.596Z,99541.22
2022-11-20T19:54:10.945Z,99537.63
2022-11-20T19:56:37.276Z,99544.03
2022-11-20T19:59:03.603Z,99525.91
2022-11-20T20:01:31.660Z,99532.28
2022-11-20T20:03:59.516Z,99525.94
2022-11-20T20:06:26.370Z,99519.88
2022-11-20T20:09:02.490Z,99521.31
2022-11-20T20:11:31.184Z,99518.13
2022-11-20T20:13:57.531Z,99507.75
2022-11-20T20:16:25.660Z,99511.13
2022-11-20T20:19:00.015Z,99499.75
2022-11-20T20:21:26.366Z,99496.94
2022-11-20T20:23:54.362Z,99499.63
2022-11-20T20:26:22.658Z,99496.50
2022-11-20T20:28:49.179Z,99484.28
2022-11-20T20:31:18.902Z,99487.47
2022-11-20T20:33:45.710Z,99482.63
2022-11-20T20:36:13.989Z,99487.03
2022-11-20T20:38:40.603Z,99475.72
2022-11-20T20:41:06.933Z,99474.41
2022-11-20T20:43:33.379Z,99466.91
2022-11-20T20:45:59.716Z,99470.56
2022-11-20T20:48:26.049Z,99465.47
2022-11-20T20:50:57.719Z,99456.63
2022-11-20T20:53:25.029Z,99461.16
2022-11-20T20:55:58.787Z,99460.25
2022-11-20T20:58:25.755Z,99456.63
2022-11-20T21:00:52.296Z,99457.28
2022-11-20T21:03:19.766Z,99456.06
2022-11-20T21:05:46.813Z,99443.81
2022-11-20T21:08:13.252Z,99439.78
2022-11-20T21:10:39.595Z,99429.78
2022-11-20T21:13:05.938Z,99434.03
2022-11-20T21:15:32.237Z,99434.72
2022-11-20T21:17:58.545Z,99435.06
2022-11-20T21:20:24.867Z,99429.59
2022-11-20T21:22:51.184Z,99432.50
2022-11-20T21:25:17.540Z,99424.66
2022-11-20T21:27:43.869Z,99419.09
2022-11-20T21:30:10.737Z,99411.38
2022-11-20T21:32:37.073Z,99409.44
2022-11-20T21:35:03.456Z,99404.56
2022-11-20T21:37:29.764Z,99402.06
2022-11-20T21:39:56.105Z,99394.66
2022-11-20T21:42:22.425Z,99395.25
2022-11-20T21:44:48.799Z,99392.34
2022-11-20T21:47:15.195Z,99392.22
2022-11-20T21:49:41.523Z,99395.63
2022-11-20T21:52:07.868Z,99384.50
2022-11-20T21:54:34.160Z,99386.94
2022-11-20T21:57:00.467Z,99371.56
2022-11-20T21:59:26.812Z,99375.34
2022-11-20T22:01:53.182Z,99373.00
2022-11-20T22:04:19.631Z,99384.13
2022-11-20T22:06:45.976Z,99382.50
2022-11-20T22:09:13.347Z,99381.63
2022-11-20T22:11:39.663Z,99379.81
2022-11-20T22:14:06.076Z,99374.84
2022-11-20T22:16:36.795Z,99376.28
2022-11-20T22:19:04.780Z,99370.84
2022-11-20T22:21:32.093Z,99378.19
2022-11-20T22:23:58.815Z,99378.31
2022-11-20T22:26:40.251Z,99379.97
2022-11-20T22:29:07.545Z,99384.22
2022-11-20T22:31:34.063Z,99383.59
2022-11-20T22:34:02.016Z,99387.81
2022-11-20T22:36:30.357Z,99391.88
2022-11-20T22:38:57.514Z,99383.22
2022-11-20T22:41:28.405Z,99392.00
2022-11-20T22:43:56.467Z,99386.03
2022-11-20T22:46:23.937Z,99390.44
2022-11-20T22:48:53.476Z,99400.63
2022-11-20T22:51:22.874Z,99396.31
2022-11-20T22:53:49.545Z,99401.22
2022-11-20T22:56:16.680Z,99409.75
2022-11-20T22:58:45.134Z,99408.69
2022-11-20T23:01:15.322Z,99407.09
2022-11-20T23:03:44.576Z,99412.53
2022-11-20T23:06:12.062Z,99415.94
2022-11-20T23:08:39.654Z,99417.16
2022-11-20T23:11:16.884Z,99429.03
2022-11-20T23:13:44.551Z,99428.16
2022-11-20T23:16:13.869Z,99423.06
2022-11-20T23:18:41.370Z,99425.69
2022-11-20T23:21:16.202Z,99423.38
2022-11-20T23:23:42.990Z,99420.13
2022-11-20T23:26:13.735Z,99417.88
2022-11-20T23:28:40.885Z,99428.22
2022-11-20T23:31:08.753Z,99431.25
2022-11-20T23:33:36.035Z,99431.63
2022-11-20T23:36:02.775Z,99427.63
2022-11-20T23:38:29.145Z,99431.69
2022-11-20T23:40:55.446Z,99425.38
2022-11-20T23:43:22.484Z,99426.25
2022-11-20T23:45:53.741Z,99424.19
2022-11-20T23:48:21.622Z,99429.41
2022-11-20T23:50:48.807Z,99440.94
2022-11-20T23:53:15.986Z,99449.59
2022-11-20T23:55:50.744Z,99446.94
2022-11-20T23:58:17.206Z,99448.38
